sensor_id;sensor_type;location;lat;lon;timestamp;temperature;humidity
24250;DHT22;12379;49.820;8.648;2022-11-15T00:00:20;12.90;99.90
24250;DHT22;12379;49.820;8.648;2022-11-15T00:02:46;12.80;99.90
24250;DHT22;12379;49.820;8.648;2022-11-15T00:05:11;12.60;99.90
24250;DHT22;12379;49.820;8.648;2022-11-15T00:07:37;12.60;99.90
24250;DHT22;12379;49.820;8.648;2022-11-15T00:10:03;12.60;99.90
24250;DHT22;12379;49.820;8.648;2022-11-15T00:12:29;12.70;99.90
24250;DHT22;12379;49.820;8.648;2022-11-15T00:14:54;12.80;99.90
24250;DHT22;12379;49.820;8.648;2022-11-15T00:17:20;13.00;99.90
24250;DHT22;12379;49.820;8.648;2022-11-15T00:19:45;13.00;99.90
24250;DHT22;12379;49.820;8.648;2022-11-15T00:22:11;13.10;99.90
24250;DHT22;12379;49.820;8.648;2022-11-15T00:24:36;13.00;99.90
24250;DHT22;12379;49.820;8.648;2022-11-15T00:27:02;13.00;99.90
24250;DHT22;12379;49.820;8.648;2022-11-15T00:29:27;13.00;99.90
24250;DHT22;12379;49.820;8.648;2022-11-15T00:31:53;13.10;99.90
24250;DHT22;12379;49.820;8.648;2022-11-15T00:34:19;13.00;99.90
24250;DHT22;12379;49.820;8.648;2022-11-15T00:36:44;13.00;99.90
24250;DHT22;12379;49.820;8.648;2022-11-15T00:39:10;13.00;99.90
24250;DHT22;12379;49.820;8.648;2022-11-15T00:41:35;13.00;99.90
24250;DHT22;12379;49.820;8.648;2022-11-15T00:44:01;13.10;99.90
24250;DHT22;12379;49.820;8.648;2022-11-15T00:46:26;13.20;99.90
24250;DHT22;12379;49.820;8.648;2022-11-15T00:48:52;13.20;99.90
24250;DHT22;12379;49.820;8.648;2022-11-15T00:51:17;13.10;99.90
24250;DHT22;12379;49.820;8.648;2022-11-15T00:53:43;13.00;99.90
24250;DHT22;12379;49.820;8.648;2022-11-15T00:56:08;13.00;99.90
24250;DHT22;12379;49.820;8.648;2022-11-15T00:58:34;13.00;99.90
24250;DHT22;12379;49.820;8.648;2022-11-15T01:01:10;12.90;99.90
24250;DHT22;12379;49.820;8.648;2022-11-15T01:03:37;12.90;99.90
24250;DHT22;12379;49.820;8.648;2022-11-15T01:06:03;12.80;99.90
24250;DHT22;12379;49.820;8.648;2022-11-15T01:08:29;12.90;99.90
24250;DHT22;12379;49.820;8.648;2022-11-15T01:11:03;13.10;99.90
24250;DHT22;12379;49.820;8.648;2022-11-15T01:13:31;13.00;99.90
24250;DHT22;12379;49.820;8.648;2022-11-15T01:15:57;13.00;99.90
24250;DHT22;12379;49.820;8.648;2022-11-15T01:18:22;13.10;99.90
24250;DHT22;12379;49.820;8.648;2022-11-15T01:20:48;13.00;99.90
24250;DHT22;12379;49.820;8.648;2022-11-15T01:23:14;12.80;99.90
24250;DHT22;12379;49.820;8.648;2022-11-15T01:25:39;12.90;99.90
24250;DHT22;12379;49.820;8.648;2022-11-15T01:28:05;12.80;99.90
24250;DHT22;12379;49.820;8.648;2022-11-15T01:30:31;12.80;99.90
24250;DHT22;12379;49.820;8.648;2022-11-15T01:32:57;12.60;99.90
24250;DHT22;12379;49.820;8.648;2022-11-15T01:35:22;12.50;99.90
24250;DHT22;12379;49.820;8.648;2022-11-15T01:37:48;12.40;99.90
24250;DHT22;12379;49.820;8.648;2022-11-15T01:40:14;12.20;99.90
24250;DHT22;12379;49.820;8.648;2022-11-15T01:42:39;12.10;99.90
24250;DHT22;12379;49.820;8.648;2022-11-15T01:45:05;12.10;99.90
24250;DHT22;12379;49.820;8.648;2022-11-15T01:47:47;12.10;99.90
24250;DHT22;12379;49.820;8.648;2022-11-15T01:50:17;12.20;99.90
24250;DHT22;12379;49.820;8.648;2022-11-15T01:52:45;12.20;99.90
24250;DHT22;12379;49.820;8.648;2022-11-15T01:55:20;12.30;99.90
24250;DHT22;12379;49.820;8.648;2022-11-15T01:57:49;12.40;99.90
24250;DHT22;12379;49.820;8.648;2022-11-15T02:00:16;12.50;99.90
24250;DHT22;12379;49.820;8.648;2022-11-15T02:02:42;12.60;99.90
24250;DHT22;12379;49.820;8.648;2022-11-15T02:05:08;12.80;99.90
24250;DHT22;12379;49.820;8.648;2022-11-15T02:07:35;13.00;99.90
24250;DHT22;12379;49.820;8.648;2022-11-15T02:10:17;13.10;99.90
24250;DHT22;12379;49.820;8.648;2022-11-15T02:12:43;13.10;99.90
24250;DHT22;12379;49.820;8.648;2022-11-15T02:15:09;13.30;99.90
24250;DHT22;12379;49.820;8.648;2022-11-15T02:18:16;13.30;99.90
24250;DHT22;12379;49.820;8.648;2022-11-15T02:29:08;13.50;99.90
24250;DHT22;12379;49.820;8.648;2022-11-15T02:37:59;13.50;99.90
24250;DHT22;12379;49.820;8.648;2022-11-15T02:40:52;13.30;99.90
24250;DHT22;12379;49.820;8.648;2022-11-15T02:43:56;13.10;99.90
24250;DHT22;12379;49.820;8.648;2022-11-15T02:46:32;13.10;99.90
24250;DHT22;12379;49.820;8.648;2022-11-15T02:49:19;12.90;99.90
24250;DHT22;12379;49.820;8.648;2022-11-15T02:51:46;12.90;99.90
24250;DHT22;12379;49.820;8.648;2022-11-15T02:54:24;12.70;99.90
24250;DHT22;12379;49.820;8.648;2022-11-15T02:56:53;12.60;99.90
24250;DHT22;12379;49.820;8.648;2022-11-15T03:04:41;12.40;99.90
24250;DHT22;12379;49.820;8.648;2022-11-15T03:07:15;12.30;99.90
24250;DHT22;12379;49.820;8.648;2022-11-15T03:12:49;12.00;99.90
24250;DHT22;12379;49.820;8.648;2022-11-15T03:15:18;11.90;99.90
24250;DHT22;12379;49.820;8.648;2022-11-15T03:17:55;11.80;99.90
24250;DHT22;12379;49.820;8.648;2022-11-15T03:20:24;11.70;99.90
24250;DHT22;12379;49.820;8.648;2022-11-15T03:22:51;11.80;99.90
24250;DHT22;12379;49.820;8.648;2022-11-15T03:25:20;11.70;99.90
24250;DHT22;12379;49.820;8.648;2022-11-15T03:27:51;11.70;99.90
24250;DHT22;12379;49.820;8.648;2022-11-15T03:30:18;11.70;99.90
24250;DHT22;12379;49.820;8.648;2022-11-15T03:32:50;11.60;99.90
24250;DHT22;12379;49.820;8.648;2022-11-15T03:35:25;11.70;99.90
24250;DHT22;12379;49.820;8.648;2022-11-15T03:38:09;11.60;99.90
24250;DHT22;12379;49.820;8.648;2022-11-15T03:40:42;11.60;99.90
24250;DHT22;12379;49.820;8.648;2022-11-15T03:45:56;11.60;99.90
24250;DHT22;12379;49.820;8.648;2022-11-15T03:48:27;11.50;99.90
24250;DHT22;12379;49.820;8.648;2022-11-15T03:50:56;11.50;99.90
24250;DHT22;12379;49.820;8.648;2022-11-15T03:53:22;11.60;99.90
24250;DHT22;12379;49.820;8.648;2022-11-15T03:55:47;11.60;99.90
24250;DHT22;12379;49.820;8.648;2022-11-15T03:58:13;11.60;99.90
24250;DHT22;12379;49.820;8.648;2022-11-15T04:00:38;11.60;99.90
24250;DHT22;12379;49.820;8.648;2022-11-15T04:03:04;11.60;99.90
24250;DHT22;12379;49.820;8.648;2022-11-15T04:05:29;11.60;99.90
24250;DHT22;12379;49.820;8.648;2022-11-15T04:07:55;11.60;99.90
24250;DHT22;12379;49.820;8.648;2022-11-15T04:10:21;11.60;99.90
24250;DHT22;12379;49.820;8.648;2022-11-15T04:12:46;11.70;99.90
24250;DHT22;12379;49.820;8.648;2022-11-15T04:15:22;11.70;99.90
24250;DHT22;12379;49.820;8.648;2022-11-15T04:17:53;11.70;99.90
24250;DHT22;12379;49.820;8.648;2022-11-15T04:20:28;11.60;99.90
24250;DHT22;12379;49.820;8.648;2022-11-15T04:23:17;11.70;99.90
24250;DHT22;12379;49.820;8.648;2022-11-15T04:28:33;11.60;99.90
24250;DHT22;12379;49.820;8.648;2022-11-15T04:30:59;11.70;99.90
24250;DHT22;12379;49.820;8.648;2022-11-15T04:33:25;11.90;99.90
24250;DHT22;12379;49.820;8.648;2022-11-15T04:35:51;11.90;99.90
24250;DHT22;12379;49.820;8.648;2022-11-15T04:38:36;11.90;99.90
24250;DHT22;12379;49.820;8.648;2022-11-15T04:41:01;11.80;99.90
24250;DHT22;12379;49.820;8.648;2022-11-15T04:43:28;11.80;99.90
24250;DHT22;12379;49.820;8.648;2022-11-15T04:45:53;11.80;99.90
24250;DHT22;12379;49.820;8.648;2022-11-15T04:48:19;11.80;99.90
24250;DHT22;12379;49.820;8.648;2022-11-15T04:50:44;11.80;99.90
24250;DHT22;12379;49.820;8.648;2022-11-15T04:53:12;11.80;99.90
24250;DHT22;12379;49.820;8.648;2022-11-15T04:55:38;11.90;99.90
24250;DHT22;12379;49.820;8.648;2022-11-15T04:58:03;11.90;99.90
24250;DHT22;12379;49.820;8.648;2022-11-15T05:00:29;11.90;99.90
24250;DHT22;12379;49.820;8.648;2022-11-15T05:02:55;11.80;99.90
24250;DHT22;12379;49.820;8.648;2022-11-15T05:05:40;11.80;99.90
24250;DHT22;12379;49.820;8.648;2022-11-15T05:08:06;11.80;99.90
24250;DHT22;12379;49.820;8.648;2022-11-15T05:10:31;11.70;99.90
24250;DHT22;12379;49.820;8.648;2022-11-15T05:12:57;11.70;99.90
24250;DHT22;12379;49.820;8.648;2022-11-15T05:15:22;11.70;99.90
24250;DHT22;12379;49.820;8.648;2022-11-15T05:17:48;11.60;99.90
24250;DHT22;12379;49.820;8.648;2022-11-15T05:20:13;11.60;99.90
24250;DHT22;12379;49.820;8.648;2022-11-15T05:22:39;11.50;99.90
24250;DHT22;12379;49.820;8.648;2022-11-15T05:25:05;11.50;99.90
24250;DHT22;12379;49.820;8.648;2022-11-15T05:27:31;11.50;99.90
24250;DHT22;12379;49.820;8.648;2022-11-15T05:29:57;11.50;99.90
24250;DHT22;12379;49.820;8.648;2022-11-15T05:32:23;11.40;99.90
24250;DHT22;12379;49.820;8.648;2022-11-15T05:34:49;11.40;99.90
24250;DHT22;12379;49.820;8.648;2022-11-15T05:37:16;11.30;99.90
24250;DHT22;12379;49.820;8.648;2022-11-15T05:39:41;11.30;99.90
24250;DHT22;12379;49.820;8.648;2022-11-15T05:42:11;11.30;99.90
24250;DHT22;12379;49.820;8.648;2022-11-15T05:44:38;11.30;99.90
24250;DHT22;12379;49.820;8.648;2022-11-15T05:47:07;11.30;99.90
24250;DHT22;12379;49.820;8.648;2022-11-15T05:49:36;11.20;99.90
24250;DHT22;12379;49.820;8.648;2022-11-15T05:52:05;11.20;99.90
24250;DHT22;12379;49.820;8.648;2022-11-15T05:54:32;11.20;99.90
24250;DHT22;12379;49.820;8.648;2022-11-15T05:56:58;11.20;99.90
24250;DHT22;12379;49.820;8.648;2022-11-15T05:59:25;11.20;99.90
24250;DHT22;12379;49.820;8.648;2022-11-15T06:01:53;11.20;99.90
24250;DHT22;12379;49.820;8.648;2022-11-15T06:04:19;11.10;99.90
24250;DHT22;12379;49.820;8.648;2022-11-15T06:06:44;11.20;99.90
24250;DHT22;12379;49.820;8.648;2022-11-15T06:09:10;11.10;99.90
24250;DHT22;12379;49.820;8.648;2022-11-15T06:11:35;11.10;99.90
24250;DHT22;12379;49.820;8.648;2022-11-15T06:14:01;11.10;99.90
24250;DHT22;12379;49.820;8.648;2022-11-15T06:16:26;11.10;99.90
24250;DHT22;12379;49.820;8.648;2022-11-15T06:18:52;11.00;99.90
24250;DHT22;12379;49.820;8.648;2022-11-15T06:21:18;11.00;99.90
24250;DHT22;12379;49.820;8.648;2022-11-15T06:23:43;11.10;99.90
24250;DHT22;12379;49.820;8.648;2022-11-15T06:26:09;11.00;99.90
24250;DHT22;12379;49.820;8.648;2022-11-15T06:28:34;11.00;99.90
24250;DHT22;12379;49.820;8.648;2022-11-15T06:31:08;11.00;99.90
24250;DHT22;12379;49.820;8.648;2022-11-15T06:33:34;11.00;99.90
24250;DHT22;12379;49.820;8.648;2022-11-15T06:36:04;11.00;99.90
24250;DHT22;12379;49.820;8.648;2022-11-15T06:38:30;11.00;99.90
24250;DHT22;12379;49.820;8.648;2022-11-15T06:41:04;11.00;99.90
24250;DHT22;12379;49.820;8.648;2022-11-15T06:43:31;11.00;99.90
24250;DHT22;12379;49.820;8.648;2022-11-15T06:46:00;10.90;99.90
24250;DHT22;12379;49.820;8.648;2022-11-15T06:48:27;10.90;99.90
24250;DHT22;12379;49.820;8.648;2022-11-15T06:50:53;10.90;99.90
24250;DHT22;12379;49.820;8.648;2022-11-15T06:53:19;10.80;99.90
24250;DHT22;12379;49.820;8.648;2022-11-15T06:55:45;10.90;99.90
24250;DHT22;12379;49.820;8.648;2022-11-15T06:58:11;10.90;99.90
24250;DHT22;12379;49.820;8.648;2022-11-15T07:00:36;10.90;99.90
24250;DHT22;12379;49.820;8.648;2022-11-15T07:03:03;10.80;99.90
24250;DHT22;12379;49.820;8.648;2022-11-15T07:05:28;10.80;99.90
24250;DHT22;12379;49.820;8.648;2022-11-15T07:07:55;10.80;99.90
24250;DHT22;12379;49.820;8.648;2022-11-15T07:10:22;10.80;99.90
24250;DHT22;12379;49.820;8.648;2022-11-15T07:12:50;10.80;99.90
24250;DHT22;12379;49.820;8.648;2022-11-15T07:15:17;10.90;99.90
24250;DHT22;12379;49.820;8.648;2022-11-15T07:17:43;11.00;99.90
24250;DHT22;12379;49.820;8.648;2022-11-15T07:20:09;11.00;99.90
24250;DHT22;12379;49.820;8.648;2022-11-15T07:22:35;11.20;99.90
24250;DHT22;12379;49.820;8.648;2022-11-15T07:25:01;11.20;99.90
24250;DHT22;12379;49.820;8.648;2022-11-15T07:27:26;11.30;99.90
24250;DHT22;12379;49.820;8.648;2022-11-15T07:29:52;11.30;99.90
24250;DHT22;12379;49.820;8.648;2022-11-15T07:32:17;11.40;99.90
24250;DHT22;12379;49.820;8.648;2022-11-15T07:34:43;11.50;99.90
24250;DHT22;12379;49.820;8.648;2022-11-15T07:37:10;11.50;99.90
24250;DHT22;12379;49.820;8.648;2022-11-15T07:39:36;11.60;99.90
24250;DHT22;12379;49.820;8.648;2022-11-15T07:42:01;11.60;99.90
24250;DHT22;12379;49.820;8.648;2022-11-15T07:44:45;11.60;99.90
24250;DHT22;12379;49.820;8.648;2022-11-15T07:47:11;11.70;99.90
24250;DHT22;12379;49.820;8.648;2022-11-15T07:49:37;11.70;99.90
24250;DHT22;12379;49.820;8.648;2022-11-15T07:52:02;11.60;99.90
24250;DHT22;12379;49.820;8.648;2022-11-15T07:54:28;11.60;99.90
24250;DHT22;12379;49.820;8.648;2022-11-15T07:56:53;11.60;99.90
24250;DHT22;12379;49.820;8.648;2022-11-15T07:59:19;11.70;99.90
24250;DHT22;12379;49.820;8.648;2022-11-15T08:01:45;11.70;99.90
24250;DHT22;12379;49.820;8.648;2022-11-15T08:04:11;11.70;99.90
24250;DHT22;12379;49.820;8.648;2022-11-15T08:06:37;11.80;99.90
24250;DHT22;12379;49.820;8.648;2022-11-15T08:09:03;11.90;99.90
24250;DHT22;12379;49.820;8.648;2022-11-15T08:11:29;11.90;99.90
24250;DHT22;12379;49.820;8.648;2022-11-15T08:13:55;11.90;99.90
24250;DHT22;12379;49.820;8.648;2022-11-15T08:16:20;12.00;99.90
24250;DHT22;12379;49.820;8.648;2022-11-15T08:18:46;12.10;99.90
24250;DHT22;12379;49.820;8.648;2022-11-15T08:21:14;12.50;99.90
24250;DHT22;12379;49.820;8.648;2022-11-15T08:23:41;12.60;99.90
24250;DHT22;12379;49.820;8.648;2022-11-15T08:26:06;12.80;99.90
24250;DHT22;12379;49.820;8.648;2022-11-15T08:28:32;12.80;99.90
24250;DHT22;12379;49.820;8.648;2022-11-15T08:30:57;12.70;99.90
24250;DHT22;12379;49.820;8.648;2022-11-15T08:33:23;12.60;99.90
24250;DHT22;12379;49.820;8.648;2022-11-15T08:35:49;12.60;99.90
24250;DHT22;12379;49.820;8.648;2022-11-15T08:38:15;12.60;99.90
24250;DHT22;12379;49.820;8.648;2022-11-15T08:40:40;12.50;99.90
24250;DHT22;12379;49.820;8.648;2022-11-15T08:43:06;12.50;99.90
24250;DHT22;12379;49.820;8.648;2022-11-15T08:45:34;12.50;99.90
24250;DHT22;12379;49.820;8.648;2022-11-15T08:48:04;12.50;99.90
24250;DHT22;12379;49.820;8.648;2022-11-15T08:50:30;12.50;99.90
24250;DHT22;12379;49.820;8.648;2022-11-15T08:52:55;12.40;99.90
24250;DHT22;12379;49.820;8.648;2022-11-15T08:55:21;12.40;99.90
24250;DHT22;12379;49.820;8.648;2022-11-15T08:57:46;12.50;99.90
24250;DHT22;12379;49.820;8.648;2022-11-15T09:00:12;12.40;99.90
24250;DHT22;12379;49.820;8.648;2022-11-15T09:02:39;12.30;99.90
24250;DHT22;12379;49.820;8.648;2022-11-15T09:05:05;12.40;99.90
24250;DHT22;12379;49.820;8.648;2022-11-15T09:07:31;12.50;99.90
24250;DHT22;12379;49.820;8.648;2022-11-15T09:09:57;12.70;99.90
24250;DHT22;12379;49.820;8.648;2022-11-15T09:12:23;12.80;99.90
24250;DHT22;12379;49.820;8.648;2022-11-15T09:14:49;12.80;99.90
24250;DHT22;12379;49.820;8.648;2022-11-15T09:17:14;12.90;99.90
24250;DHT22;12379;49.820;8.648;2022-11-15T09:19:40;13.00;99.90
24250;DHT22;12379;49.820;8.648;2022-11-15T09:22:06;13.30;99.90
24250;DHT22;12379;49.820;8.648;2022-11-15T09:24:33;13.60;99.90
24250;DHT22;12379;49.820;8.648;2022-11-15T09:26:59;13.90;99.90
24250;DHT22;12379;49.820;8.648;2022-11-15T09:29:25;13.90;99.90
24250;DHT22;12379;49.820;8.648;2022-11-15T09:31:53;13.90;99.90
24250;DHT22;12379;49.820;8.648;2022-11-15T09:34:19;13.70;99.90
24250;DHT22;12379;49.820;8.648;2022-11-15T09:36:46;13.50;99.90
24250;DHT22;12379;49.820;8.648;2022-11-15T09:39:11;13.40;99.90
24250;DHT22;12379;49.820;8.648;2022-11-15T09:49:58;13.60;99.90
24250;DHT22;12379;49.820;8.648;2022-11-15T09:52:24;13.70;99.90
24250;DHT22;12379;49.820;8.648;2022-11-15T09:54:51;13.80;99.90
24250;DHT22;12379;49.820;8.648;2022-11-15T09:57:31;14.00;99.90
24250;DHT22;12379;49.820;8.648;2022-11-15T10:00:22;14.10;99.90
24250;DHT22;12379;49.820;8.648;2022-11-15T10:05:38;14.00;99.90
24250;DHT22;12379;49.820;8.648;2022-11-15T10:08:25;14.00;99.90
24250;DHT22;12379;49.820;8.648;2022-11-15T10:11:03;14.20;99.90
24250;DHT22;12379;49.820;8.648;2022-11-15T10:13:35;14.20;99.90
24250;DHT22;12379;49.820;8.648;2022-11-15T10:18:49;14.40;99.90
24250;DHT22;12379;49.820;8.648;2022-11-15T10:21:21;14.50;99.90
24250;DHT22;12379;49.820;8.648;2022-11-15T10:23:50;14.50;99.90
24250;DHT22;12379;49.820;8.648;2022-11-15T10:26:16;14.70;99.90
24250;DHT22;12379;49.820;8.648;2022-11-15T10:28:42;14.70;99.90
24250;DHT22;12379;49.820;8.648;2022-11-15T10:31:26;14.70;99.90
24250;DHT22;12379;49.820;8.648;2022-11-15T10:33:56;14.60;99.90
24250;DHT22;12379;49.820;8.648;2022-11-15T10:36:24;14.30;99.90
24250;DHT22;12379;49.820;8.648;2022-11-15T10:41:20;14.00;99.90
24250;DHT22;12379;49.820;8.648;2022-11-15T10:44:23;14.00;99.90
24250;DHT22;12379;49.820;8.648;2022-11-15T10:49:26;13.80;99.90
24250;DHT22;12379;49.820;8.648;2022-11-15T10:57:20;13.80;99.90
24250;DHT22;12379;49.820;8.648;2022-11-15T10:59:52;13.70;99.90
24250;DHT22;12379;49.820;8.648;2022-11-15T11:02:31;13.60;99.90
24250;DHT22;12379;49.820;8.648;2022-11-15T11:04:58;13.70;99.90
24250;DHT22;12379;49.820;8.648;2022-11-15T11:07:27;13.80;99.90
24250;DHT22;12379;49.820;8.648;2022-11-15T11:10:03;13.80;99.90
24250;DHT22;12379;49.820;8.648;2022-11-15T11:12:31;13.80;99.90
24250;DHT22;12379;49.820;8.648;2022-11-15T11:14:58;13.80;99.90
24250;DHT22;12379;49.820;8.648;2022-11-15T11:17:50;14.10;99.90
24250;DHT22;12379;49.820;8.648;2022-11-15T11:20:37;14.30;99.90
24250;DHT22;12379;49.820;8.648;2022-11-15T11:26:13;14.70;99.90
24250;DHT22;12379;49.820;8.648;2022-11-15T11:34:34;14.90;99.90
24250;DHT22;12379;49.820;8.648;2022-11-15T11:37:17;14.90;99.90
24250;DHT22;12379;49.820;8.648;2022-11-15T11:43:12;15.30;99.90
24250;DHT22;12379;49.820;8.648;2022-11-15T11:51:00;15.50;99.90
24250;DHT22;12379;49.820;8.648;2022-11-15T11:53:43;15.50;99.90
24250;DHT22;12379;49.820;8.648;2022-11-15T11:56:24;15.40;99.90
24250;DHT22;12379;49.820;8.648;2022-11-15T11:58:54;15.20;99.90
24250;DHT22;12379;49.820;8.648;2022-11-15T12:01:29;15.30;99.90
24250;DHT22;12379;49.820;8.648;2022-11-15T12:04:08;15.30;99.90
24250;DHT22;12379;49.820;8.648;2022-11-15T12:06:55;15.40;99.90
24250;DHT22;12379;49.820;8.648;2022-11-15T12:09:33;15.30;99.90
24250;DHT22;12379;49.820;8.648;2022-11-15T12:15:52;15.80;99.90
24250;DHT22;12379;49.820;8.648;2022-11-15T12:18:37;15.80;99.90
24250;DHT22;12379;49.820;8.648;2022-11-15T12:24:13;15.70;99.90
24250;DHT22;12379;49.820;8.648;2022-11-15T12:29:53;15.40;99.90
24250;DHT22;12379;49.820;8.648;2022-11-15T12:32:31;15.50;99.90
24250;DHT22;12379;49.820;8.648;2022-11-15T12:34:59;15.50;99.90
24250;DHT22;12379;49.820;8.648;2022-11-15T12:40:18;15.40;99.90
24250;DHT22;12379;49.820;8.648;2022-11-15T12:45:42;15.30;99.90
24250;DHT22;12379;49.820;8.648;2022-11-15T12:50:56;15.20;99.90
24250;DHT22;12379;49.820;8.648;2022-11-15T12:53:30;15.10;99.90
24250;DHT22;12379;49.820;8.648;2022-11-15T12:58:44;15.30;99.90
24250;DHT22;12379;49.820;8.648;2022-11-15T13:15:00;15.10;99.90
24250;DHT22;12379;49.820;8.648;2022-11-15T13:17:29;15.00;99.90
24250;DHT22;12379;49.820;8.648;2022-11-15T13:22:27;14.80;99.90
24250;DHT22;12379;49.820;8.648;2022-11-15T13:27:49;14.70;99.90
24250;DHT22;12379;49.820;8.648;2022-11-15T13:30:24;14.60;99.90
24250;DHT22;12379;49.820;8.648;2022-11-15T13:32:51;14.60;99.90
24250;DHT22;12379;49.820;8.648;2022-11-15T13:35:24;14.50;99.90
24250;DHT22;12379;49.820;8.648;2022-11-15T13:37:53;14.60;99.90
24250;DHT22;12379;49.820;8.648;2022-11-15T13:40:25;14.70;99.90
24250;DHT22;12379;49.820;8.648;2022-11-15T13:42:55;14.90;99.90
24250;DHT22;12379;49.820;8.648;2022-11-15T13:45:21;14.70;99.90
24250;DHT22;12379;49.820;8.648;2022-11-15T13:47:58;14.70;99.90
24250;DHT22;12379;49.820;8.648;2022-11-15T13:50:32;14.60;99.90
24250;DHT22;12379;49.820;8.648;2022-11-15T13:53:02;14.60;99.90
24250;DHT22;12379;49.820;8.648;2022-11-15T13:55:31;14.60;99.90
24250;DHT22;12379;49.820;8.648;2022-11-15T13:58:03;14.60;99.90
24250;DHT22;12379;49.820;8.648;2022-11-15T14:00:44;14.50;99.90
24250;DHT22;12379;49.820;8.648;2022-11-15T14:03:23;14.50;99.90
24250;DHT22;12379;49.820;8.648;2022-11-15T14:06:12;14.60;99.90
24250;DHT22;12379;49.820;8.648;2022-11-15T14:09:15;14.70;99.90
24250;DHT22;12379;49.820;8.648;2022-11-15T14:11:54;14.70;99.90
24250;DHT22;12379;49.820;8.648;2022-11-15T14:14:22;14.80;99.90
24250;DHT22;12379;49.820;8.648;2022-11-15T14:16:51;14.90;99.90
24250;DHT22;12379;49.820;8.648;2022-11-15T14:22:15;14.80;99.90
24250;DHT22;12379;49.820;8.648;2022-11-15T14:24:46;14.90;99.90
24250;DHT22;12379;49.820;8.648;2022-11-15T14:27:27;14.80;99.90
24250;DHT22;12379;49.820;8.648;2022-11-15T14:29:56;14.70;99.90
24250;DHT22;12379;49.820;8.648;2022-11-15T14:32:26;14.70;99.90
24250;DHT22;12379;49.820;8.648;2022-11-15T14:35:00;14.60;99.90
24250;DHT22;12379;49.820;8.648;2022-11-15T14:37:28;14.70;99.90
24250;DHT22;12379;49.820;8.648;2022-11-15T14:39:54;14.70;99.90
24250;DHT22;12379;49.820;8.648;2022-11-15T14:42:21;14.60;99.90
24250;DHT22;12379;49.820;8.648;2022-11-15T14:44:48;14.60;99.90
24250;DHT22;12379;49.820;8.648;2022-11-15T14:47:14;14.50;99.90
24250;DHT22;12379;49.820;8.648;2022-11-15T14:49:40;14.40;99.90
24250;DHT22;12379;49.820;8.648;2022-11-15T14:52:32;14.40;99.90
24250;DHT22;12379;49.820;8.648;2022-11-15T14:55:02;14.30;99.90
24250;DHT22;12379;49.820;8.648;2022-11-15T14:57:29;14.30;99.90
24250;DHT22;12379;49.820;8.648;2022-11-15T14:59:55;14.20;99.90
24250;DHT22;12379;49.820;8.648;2022-11-15T15:02:25;14.20;99.90
24250;DHT22;12379;49.820;8.648;2022-11-15T15:04:51;14.00;99.90
24250;DHT22;12379;49.820;8.648;2022-11-15T15:07:16;14.00;99.90
24250;DHT22;12379;49.820;8.648;2022-11-15T15:09:42;14.00;99.90
24250;DHT22;12379;49.820;8.648;2022-11-15T15:14:41;13.90;99.90
24250;DHT22;12379;49.820;8.648;2022-11-15T15:17:06;13.90;99.90
24250;DHT22;12379;49.820;8.648;2022-11-15T15:19:32;13.90;99.90
24250;DHT22;12379;49.820;8.648;2022-11-15T15:21:57;13.80;99.90
24250;DHT22;12379;49.820;8.648;2022-11-15T15:24:23;13.80;99.90
24250;DHT22;12379;49.820;8.648;2022-11-15T15:26:48;13.90;99.90
24250;DHT22;12379;49.820;8.648;2022-11-15T15:29:14;14.00;99.90
24250;DHT22;12379;49.820;8.648;2022-11-15T15:31:39;14.00;99.90
24250;DHT22;12379;49.820;8.648;2022-11-15T15:34:05;14.00;99.90
24250;DHT22;12379;49.820;8.648;2022-11-15T15:36:31;14.00;99.90
24250;DHT22;12379;49.820;8.648;2022-11-15T15:38:58;13.90;99.90
24250;DHT22;12379;49.820;8.648;2022-11-15T15:41:24;13.90;99.90
24250;DHT22;12379;49.820;8.648;2022-11-15T15:43:50;13.80;99.90
24250;DHT22;12379;49.820;8.648;2022-11-15T15:46:17;13.70;99.90
24250;DHT22;12379;49.820;8.648;2022-11-15T15:48:44;13.70;99.90
24250;DHT22;12379;49.820;8.648;2022-11-15T15:51:10;13.60;99.90
24250;DHT22;12379;49.820;8.648;2022-11-15T15:53:36;13.60;99.90
24250;DHT22;12379;49.820;8.648;2022-11-15T15:56:02;13.60;99.90
24250;DHT22;12379;49.820;8.648;2022-11-15T15:58:27;13.50;99.90
24250;DHT22;12379;49.820;8.648;2022-11-15T16:00:53;13.50;99.90
24250;DHT22;12379;49.820;8.648;2022-11-15T16:03:19;13.50;99.90
24250;DHT22;12379;49.820;8.648;2022-11-15T16:05:45;13.50;99.90
24250;DHT22;12379;49.820;8.648;2022-11-15T16:08:22;13.50;99.90
24250;DHT22;12379;49.820;8.648;2022-11-15T16:10:49;13.50;99.90
24250;DHT22;12379;49.820;8.648;2022-11-15T16:13:15;13.50;99.90
24250;DHT22;12379;49.820;8.648;2022-11-15T16:15:41;13.50;99.90
24250;DHT22;12379;49.820;8.648;2022-11-15T16:18:18;13.50;99.90
24250;DHT22;12379;49.820;8.648;2022-11-15T16:20:46;13.50;99.90
24250;DHT22;12379;49.820;8.648;2022-11-15T16:23:17;13.40;99.90
24250;DHT22;12379;49.820;8.648;2022-11-15T16:25:50;13.40;99.90
24250;DHT22;12379;49.820;8.648;2022-11-15T16:28:17;13.40;99.90
24250;DHT22;12379;49.820;8.648;2022-11-15T16:30:43;13.40;99.90
24250;DHT22;12379;49.820;8.648;2022-11-15T16:33:09;13.40;99.90
24250;DHT22;12379;49.820;8.648;2022-11-15T16:35:34;13.50;99.90
24250;DHT22;12379;49.820;8.648;2022-11-15T16:38:00;13.50;99.90
24250;DHT22;12379;49.820;8.648;2022-11-15T16:40:30;13.50;99.90
24250;DHT22;12379;49.820;8.648;2022-11-15T16:42:57;13.50;99.90
24250;DHT22;12379;49.820;8.648;2022-11-15T16:45:24;13.40;99.90
24250;DHT22;12379;49.820;8.648;2022-11-15T16:47:49;13.40;99.90
24250;DHT22;12379;49.820;8.648;2022-11-15T16:50:27;13.40;99.90
24250;DHT22;12379;49.820;8.648;2022-11-15T16:52:55;13.40;99.90
24250;DHT22;12379;49.820;8.648;2022-11-15T16:55:22;13.40;99.90
24250;DHT22;12379;49.820;8.648;2022-11-15T16:57:49;13.30;99.90
24250;DHT22;12379;49.820;8.648;2022-11-15T17:00:16;13.30;99.90
24250;DHT22;12379;49.820;8.648;2022-11-15T17:02:47;13.20;99.90
24250;DHT22;12379;49.820;8.648;2022-11-15T17:05:13;13.20;99.90
24250;DHT22;12379;49.820;8.648;2022-11-15T17:07:40;13.20;99.90
24250;DHT22;12379;49.820;8.648;2022-11-15T17:10:06;13.20;99.90
24250;DHT22;12379;49.820;8.648;2022-11-15T17:12:34;13.20;99.90
24250;DHT22;12379;49.820;8.648;2022-11-15T17:15:00;13.10;99.90
24250;DHT22;12379;49.820;8.648;2022-11-15T17:17:25;13.10;99.90
24250;DHT22;12379;49.820;8.648;2022-11-15T17:19:52;13.10;99.90
24250;DHT22;12379;49.820;8.648;2022-11-15T17:22:18;13.10;99.90
24250;DHT22;12379;49.820;8.648;2022-11-15T17:24:43;13.10;99.90
24250;DHT22;12379;49.820;8.648;2022-11-15T17:27:09;13.00;99.90
24250;DHT22;12379;49.820;8.648;2022-11-15T17:29:34;13.00;99.90
24250;DHT22;12379;49.820;8.648;2022-11-15T17:32:00;13.00;99.90
24250;DHT22;12379;49.820;8.648;2022-11-15T17:34:26;13.00;99.90
24250;DHT22;12379;49.820;8.648;2022-11-15T17:36:51;13.00;99.90